createdAt,value
2019-03-21T00:00:49.213Z,9.60
2019-03-21T00:03:16.432Z,11.00
2019-03-21T00:05:44.837Z,12.43
2019-03-21T00:08:13.264Z,9.83
2019-03-21T00:10:47.171Z,13.80
2019-03-21T00:13:15.582Z,12.60
2019-03-21T00:15:50.053Z,22.20
2019-03-21T00:18:18.455Z,13.23
2019-03-21T00:20:46.936Z,11.93
2019-03-21T00:23:15.339Z,17.40
2019-03-21T00:25:43.822Z,11.40
2019-03-21T00:28:12.323Z,9.33
2019-03-21T00:30:40.801Z,8.37
2019-03-21T00:33:09.185Z,8.00
2019-03-21T00:35:38.683Z,14.40
2019-03-21T00:38:07.195Z,11.77
2019-03-21T00:40:43.865Z,12.73
2019-03-21T00:43:12.877Z,15.17
2019-03-21T00:45:41.315Z,13.37
2019-03-21T00:48:16.247Z,10.40
2019-03-21T00:50:44.652Z,13.70
2019-03-21T00:53:13.158Z,10.47
2019-03-21T00:55:44.910Z,12.73
2019-03-21T00:58:13.315Z,15.63
2019-03-21T01:00:44.864Z,20.70
2019-03-21T01:03:14.045Z,10.43
2019-03-21T01:05:42.884Z,14.23
2019-03-21T01:08:11.363Z,10.63
2019-03-21T01:10:39.790Z,10.60
2019-03-21T01:13:08.200Z,19.73
2019-03-21T01:15:36.616Z,12.17
2019-03-21T01:18:05.282Z,12.80
2019-03-21T01:20:33.693Z,14.07
2019-03-21T01:23:02.489Z,10.60
2019-03-21T01:25:37.226Z,11.47
2019-03-21T01:28:05.722Z,12.07
2019-03-21T01:30:34.114Z,14.80
2019-03-21T01:33:02.521Z,13.60
2019-03-21T01:35:30.948Z,11.57
2019-03-21T01:37:59.340Z,9.87
2019-03-21T01:40:46.015Z,13.10
2019-03-21T01:43:14.486Z,17.13
2019-03-21T01:45:42.881Z,18.10
2019-03-21T01:48:11.531Z,10.73
2019-03-21T01:50:41.083Z,14.57
2019-03-21T01:53:09.498Z,13.30
2019-03-21T01:55:37.911Z,13.50
2019-03-21T01:58:06.587Z,10.90
2019-03-21T02:00:40.208Z,9.80
2019-03-21T02:03:08.602Z,9.27
2019-03-21T02:05:37.026Z,11.50
2019-03-21T02:08:05.674Z,11.77
2019-03-21T02:10:34.721Z,12.10
2019-03-21T02:13:03.188Z,10.77
2019-03-21T02:15:31.664Z,10.43
2019-03-21T02:18:00.066Z,14.10
2019-03-21T02:20:28.882Z,11.87
2019-03-21T02:22:57.363Z,15.50
2019-03-21T02:25:28.625Z,15.13
2019-03-21T02:27:57.070Z,14.07
2019-03-21T02:33:46.495Z,14.53
2019-03-21T02:36:14.905Z,14.60
2019-03-21T02:38:43.346Z,10.40
2019-03-21T02:41:16.509Z,14.30
2019-03-21T02:43:44.939Z,10.13
2019-03-21T02:46:13.416Z,18.33
2019-03-21T02:48:41.823Z,13.93
2019-03-21T02:51:10.275Z,12.00
2019-03-21T02:53:38.644Z,11.70
2019-03-21T02:56:10.409Z,13.90
2019-03-21T02:58:38.830Z,13.97
2019-03-21T03:01:07.238Z,14.20
2019-03-21T03:03:35.644Z,13.47
2019-03-21T03:06:04.181Z,14.67
2019-03-21T03:08:32.641Z,18.83
2019-03-21T03:11:13.150Z,11.03
2019-03-21T03:13:44.025Z,14.77
2019-03-21T03:16:12.424Z,19.50
2019-03-21T03:18:40.924Z,12.13
2019-03-21T03:21:09.322Z,13.30
2019-03-21T03:23:37.747Z,15.20
2019-03-21T03:26:06.175Z,13.03
2019-03-21T03:28:37.653Z,14.27
2019-03-21T03:31:06.063Z,13.67
2019-03-21T03:33:34.461Z,13.43
2019-03-21T03:36:02.941Z,16.50
2019-03-21T03:38:31.396Z,12.87
2019-03-21T03:41:04.895Z,13.20
2019-03-21T03:43:33.522Z,12.83
2019-03-21T03:46:01.985Z,11.73
2019-03-21T03:48:30.660Z,11.63
2019-03-21T03:50:59.058Z,15.80
2019-03-21T03:53:27.466Z,14.80
2019-03-21T03:55:55.968Z,14.43
2019-03-21T03:58:25.806Z,10.80
2019-03-21T04:00:54.270Z,18.87
2019-03-21T04:03:22.843Z,15.70
2019-03-21T04:05:51.265Z,13.37
2019-03-21T04:08:19.650Z,16.03
2019-03-21T04:10:50.442Z,15.47
2019-03-21T04:13:18.850Z,13.33
2019-03-21T04:15:53.394Z,26.97
2019-03-21T04:18:19.709Z,25.70
2019-03-21T04:20:59.878Z,14.43
2019-03-21T04:23:28.301Z,15.97
2019-03-21T04:26:06.029Z,16.90
2019-03-21T04:28:34.670Z,17.97
2019-03-21T04:31:03.143Z,14.63
2019-03-21T04:33:31.530Z,18.80
2019-03-21T04:35:59.936Z,19.50
2019-03-21T04:38:28.436Z,15.50
2019-03-21T04:40:56.845Z,20.67
2019-03-21T04:43:25.314Z,18.67
2019-03-21T04:46:02.971Z,13.10
2019-03-21T04:48:23.870Z,19.63
2019-03-21T04:50:52.309Z,18.53
2019-03-21T04:53:20.702Z,14.73
2019-03-21T04:55:49.114Z,16.03
2019-03-21T04:58:17.617Z,18.00
2019-03-21T05:00:57.241Z,15.17
2019-03-21T05:03:30.209Z,16.47
2019-03-21T05:05:58.605Z,18.83
2019-03-21T05:08:27.036Z,19.57
2019-03-21T05:10:55.508Z,19.27
2019-03-21T05:13:23.904Z,20.77
2019-03-21T05:15:53.857Z,17.90
2019-03-21T05:18:41.183Z,17.50
2019-03-21T05:21:12.651Z,17.97
2019-03-21T05:23:41.060Z,15.03
2019-03-21T05:26:09.471Z,19.33
2019-03-21T05:28:37.898Z,19.13
2019-03-21T05:31:24.601Z,20.00
2019-03-21T05:33:53.053Z,17.10
2019-03-21T05:36:21.459Z,17.77
2019-03-21T05:38:49.868Z,15.13
2019-03-21T05:41:18.302Z,22.23
2019-03-21T05:43:52.747Z,24.20
2019-03-21T05:46:26.513Z,22.83
2019-03-21T05:48:51.433Z,17.50
2019-03-21T05:51:19.828Z,18.00
2019-03-21T05:53:48.251Z,17.67
2019-03-21T05:56:16.673Z,20.57
2019-03-21T05:58:45.188Z,16.80
2019-03-21T06:01:14.100Z,20.83
2019-03-21T06:03:49.827Z,18.90
2019-03-21T06:06:21.286Z,17.57
2019-03-21T06:08:49.787Z,22.47
2019-03-21T06:11:18.163Z,17.00
2019-03-21T06:13:46.588Z,24.37
2019-03-21T06:16:14.995Z,23.10
2019-03-21T06:18:55.518Z,17.73
2019-03-21T06:21:26.972Z,20.30
2019-03-21T06:24:27.619Z,19.50
2019-03-21T06:27:13.970Z,24.07
2019-03-21T06:29:35.269Z,18.40
2019-03-21T06:32:03.856Z,22.10
2019-03-21T06:34:32.464Z,23.60
2019-03-21T06:37:00.884Z,23.87
2019-03-21T06:39:29.284Z,20.30
2019-03-21T06:41:57.702Z,24.20
2019-03-21T06:44:26.126Z,21.87
2019-03-21T06:46:54.562Z,21.53
2019-03-21T06:49:22.969Z,23.63
2019-03-21T06:51:51.406Z,20.87
2019-03-21T06:54:19.815Z,27.80
2019-03-21T06:56:48.252Z,27.80
2019-03-21T06:59:16.661Z,21.53
2019-03-21T07:01:45.081Z,23.87
2019-03-21T07:04:13.500Z,24.10
2019-03-21T07:06:41.992Z,24.83
2019-03-21T07:09:10.443Z,25.63
2019-03-21T07:11:38.864Z,28.07
2019-03-21T07:14:07.340Z,23.67
2019-03-21T07:16:35.891Z,32.70
2019-03-21T07:19:04.371Z,27.10
2019-03-21T07:21:32.893Z,35.73
2019-03-21T07:24:01.297Z,37.40
2019-03-21T07:26:29.711Z,31.83
2019-03-21T07:28:58.147Z,32.07
2019-03-21T07:31:26.558Z,28.87
2019-03-21T07:33:54.969Z,38.03
2019-03-21T07:36:26.085Z,29.87
2019-03-21T07:38:53.614Z,38.27
2019-03-21T07:41:22.041Z,29.30
2019-03-21T07:43:50.465Z,31.03
2019-03-21T07:46:18.871Z,31.03
2019-03-21T07:48:47.310Z,37.70
2019-03-21T07:51:15.772Z,31.57
2019-03-21T07:53:44.192Z,28.50
2019-03-21T07:56:12.642Z,26.67
2019-03-21T07:58:41.087Z,25.57
2019-03-21T08:01:09.704Z,24.93
2019-03-21T08:03:38.154Z,23.70
2019-03-21T08:06:06.582Z,27.50
2019-03-21T08:08:34.996Z,29.40
2019-03-21T08:11:03.497Z,21.27
2019-03-21T08:13:31.913Z,27.93
2019-03-21T08:16:00.435Z,21.67
2019-03-21T08:18:28.844Z,21.83
2019-03-21T08:20:59.930Z,22.60
2019-03-21T08:23:27.424Z,25.53
2019-03-21T08:25:55.834Z,21.17
2019-03-21T08:28:24.304Z,21.50
2019-03-21T08:31:07.760Z,35.10
2019-03-21T08:33:36.205Z,26.13
2019-03-21T08:36:04.790Z,25.90
2019-03-21T08:38:33.214Z,24.03
2019-03-21T08:41:01.651Z,23.67
2019-03-21T08:43:30.060Z,23.07
2019-03-21T08:45:58.473Z,27.27
2019-03-21T08:48:26.949Z,32.00
2019-03-21T08:50:55.374Z,31.70
2019-03-21T08:53:23.789Z,22.63
2019-03-21T08:55:52.194Z,22.30
2019-03-21T08:58:20.621Z,22.90
2019-03-21T09:00:49.072Z,29.00
2019-03-21T09:03:17.471Z,28.73
2019-03-21T09:05:45.968Z,25.43
2019-03-21T09:08:14.405Z,35.67
2019-03-21T09:10:42.891Z,27.63
2019-03-21T09:13:11.341Z,22.67
2019-03-21T09:15:39.768Z,21.70
2019-03-21T09:18:08.192Z,26.20
2019-03-21T09:20:36.612Z,21.40
2019-03-21T09:23:05.079Z,17.33
2019-03-21T09:25:33.502Z,18.47
2019-03-21T09:28:02.868Z,16.10
2019-03-21T09:30:31.592Z,18.13
2019-03-21T09:33:00.011Z,18.13
2019-03-21T09:35:28.517Z,19.13
2019-03-21T09:37:56.933Z,19.83
2019-03-21T09:40:25.347Z,21.20
2019-03-21T09:42:53.849Z,21.33
2019-03-21T09:45:22.400Z,17.80
2019-03-21T09:47:50.838Z,19.93
2019-03-21T09:50:27.823Z,20.30
2019-03-21T09:52:56.336Z,18.30
2019-03-21T09:55:25.294Z,18.87
2019-03-21T09:57:53.694Z,20.33
2019-03-21T10:00:36.999Z,17.00
2019-03-21T10:03:06.366Z,23.20
2019-03-21T10:05:34.844Z,26.33
2019-03-21T10:08:03.706Z,20.30
2019-03-21T10:10:33.448Z,18.30
2019-03-21T10:13:01.983Z,30.50
2019-03-21T10:15:30.469Z,19.23
2019-03-21T10:17:58.978Z,16.53
2019-03-21T10:20:27.422Z,23.13
2019-03-21T10:22:55.812Z,26.27
2019-03-21T10:25:26.525Z,23.20
2019-03-21T10:27:54.397Z,19.93
2019-03-21T10:30:34.529Z,18.87
2019-03-21T10:33:03.969Z,20.63
2019-03-21T10:35:32.723Z,22.30
2019-03-21T10:38:01.476Z,19.00
2019-03-21T10:40:29.911Z,24.13
2019-03-21T10:42:58.323Z,24.40
2019-03-21T10:45:26.770Z,24.40
2019-03-21T10:47:55.249Z,30.67
2019-03-21T10:50:35.341Z,23.30
2019-03-21T10:53:04.569Z,27.93
2019-03-21T10:55:32.995Z,34.93
2019-03-21T10:58:01.416Z,27.20
2019-03-21T11:00:29.940Z,30.20
2019-03-21T11:05:42.190Z,30.00
2019-03-21T11:08:10.762Z,23.10
2019-03-21T11:10:39.222Z,22.20
2019-03-21T11:13:07.738Z,24.03
2019-03-21T11:15:36.410Z,24.50
2019-03-21T11:18:05.055Z,26.17
2019-03-21T11:20:35.133Z,22.23
2019-03-21T11:23:04.593Z,22.13
2019-03-21T11:25:33.071Z,39.17
2019-03-21T11:28:01.563Z,22.87
2019-03-21T11:30:35.145Z,22.00
2019-03-21T11:33:04.226Z,19.20
2019-03-21T11:35:34.148Z,18.93
2019-03-21T11:38:02.749Z,20.47
2019-03-21T11:40:31.287Z,21.60
2019-03-21T11:42:59.956Z,21.20
2019-03-21T11:45:28.619Z,22.07
2019-03-21T11:47:59.652Z,18.20
2019-03-21T11:50:27.396Z,16.63
2019-03-21T11:52:55.827Z,21.60
2019-03-21T11:55:24.383Z,14.57
2019-03-21T11:57:52.872Z,13.40
2019-03-21T12:00:21.373Z,13.40
2019-03-21T12:02:49.778Z,16.20
2019-03-21T12:05:18.359Z,20.33
2019-03-21T12:07:46.850Z,13.90
2019-03-21T12:10:16.696Z,17.00
2019-03-21T12:12:45.132Z,12.80
2019-03-21T12:15:14.162Z,13.90
2019-03-21T12:17:42.591Z,16.10
2019-03-21T12:20:13.827Z,12.40
2019-03-21T12:22:42.246Z,13.70
2019-03-21T12:25:11.087Z,13.20
2019-03-21T12:27:39.515Z,12.30
2019-03-21T12:30:11.100Z,14.33
2019-03-21T12:32:39.536Z,13.37
2019-03-21T12:35:08.498Z,17.40
2019-03-21T12:37:36.914Z,20.07
2019-03-21T12:40:09.254Z,13.23
2019-03-21T12:42:37.671Z,14.20
2019-03-21T12:45:10.174Z,14.70
2019-03-21T12:47:38.657Z,13.57
2019-03-21T12:50:08.743Z,16.43
2019-03-21T12:52:41.589Z,15.57
2019-03-21T12:55:08.020Z,15.97
2019-03-21T12:57:36.519Z,15.63
2019-03-21T13:00:10.535Z,16.20
2019-03-21T13:02:39.070Z,18.03
2019-03-21T13:05:08.606Z,16.77
2019-03-21T13:07:37.176Z,18.90
2019-03-21T13:10:06.954Z,16.20
2019-03-21T13:12:35.421Z,17.80
2019-03-21T13:15:05.773Z,20.87
2019-03-21T13:17:34.186Z,17.47
2019-03-21T13:20:02.690Z,18.77
2019-03-21T13:22:31.102Z,18.33
2019-03-21T13:24:59.526Z,18.80
2019-03-21T13:27:27.927Z,26.80
2019-03-21T13:29:56.473Z,18.90
2019-03-21T13:32:24.940Z,15.80
2019-03-21T13:34:53.437Z,18.97
2019-03-21T13:37:21.852Z,16.80
2019-03-21T13:39:50.246Z,18.17
2019-03-21T13:42:18.689Z,19.20
2019-03-21T13:44:47.105Z,20.60
2019-03-21T13:47:15.608Z,18.50
2019-03-21T13:49:44.113Z,18.77
2019-03-21T13:52:12.526Z,18.90
2019-03-21T13:54:41.654Z,19.10
2019-03-21T13:57:10.129Z,20.27
2019-03-21T13:59:38.766Z,28.83
2019-03-21T14:02:07.218Z,22.13
2019-03-21T14:04:35.639Z,21.27
2019-03-21T14:07:04.121Z,21.63
2019-03-21T14:09:32.616Z,19.27
2019-03-21T14:12:01.038Z,22.60
2019-03-21T14:14:29.477Z,22.40
2019-03-21T14:16:57.949Z,19.50
2019-03-21T14:19:26.391Z,21.07
2019-03-21T14:21:54.832Z,18.80
2019-03-21T14:24:23.447Z,23.17
2019-03-21T14:26:51.874Z,21.67
2019-03-21T14:29:20.324Z,22.27
2019-03-21T14:31:48.762Z,19.20
2019-03-21T14:34:17.299Z,20.20
2019-03-21T14:36:45.724Z,23.40
2019-03-21T14:39:14.150Z,24.00
2019-03-21T14:41:42.599Z,22.40
2019-03-21T14:44:11.014Z,21.77
2019-03-21T14:46:39.472Z,21.33
2019-03-21T14:49:07.910Z,21.53
2019-03-21T14:51:36.328Z,23.90
2019-03-21T14:54:04.877Z,20.13
2019-03-21T14:56:33.315Z,19.57
2019-03-21T14:59:01.775Z,22.33
2019-03-21T15:01:30.168Z,26.03
2019-03-21T15:03:58.614Z,23.90
2019-03-21T15:06:27.040Z,22.57
2019-03-21T15:08:55.482Z,25.07
2019-03-21T15:11:23.897Z,20.40
2019-03-21T15:13:52.319Z,21.43
2019-03-21T15:16:20.841Z,21.60
2019-03-21T15:18:49.280Z,29.17
2019-03-21T15:21:17.713Z,23.80
2019-03-21T15:23:46.181Z,23.70
2019-03-21T15:26:14.589Z,19.77
2019-03-21T15:28:43.021Z,22.40
2019-03-21T15:31:11.478Z,18.83
2019-03-21T15:33:39.915Z,17.63
2019-03-21T15:36:08.412Z,19.40
2019-03-21T15:38:36.819Z,20.23
2019-03-21T15:41:05.325Z,18.70
2019-03-21T15:43:33.728Z,17.33
2019-03-21T15:46:02.224Z,18.53
2019-03-21T15:48:30.665Z,18.80
2019-03-21T15:51:04.547Z,24.00
2019-03-21T15:53:29.404Z,15.57
2019-03-21T15:55:57.804Z,16.47
2019-03-21T15:58:26.220Z,21.17
2019-03-21T16:00:54.818Z,20.60
2019-03-21T16:03:23.275Z,19.43
2019-03-21T16:05:51.723Z,19.47
2019-03-21T16:08:20.152Z,19.77
2019-03-21T16:10:53.444Z,21.57
2019-03-21T16:13:21.856Z,15.30
2019-03-21T16:15:50.276Z,17.70
2019-03-21T16:18:18.790Z,15.53
2019-03-21T16:20:47.308Z,14.73
2019-03-21T16:23:15.697Z,16.97
2019-03-21T16:25:44.141Z,14.30
2019-03-21T16:28:12.589Z,15.73
2019-03-21T16:30:41.094Z,18.87
2019-03-21T16:33:09.575Z,17.90
2019-03-21T16:35:38.013Z,16.30
2019-03-21T16:38:06.483Z,18.07
2019-03-21T16:40:34.992Z,18.47
2019-03-21T16:43:05.559Z,17.27
2019-03-21T16:45:33.723Z,14.80
2019-03-21T16:48:02.152Z,17.50
2019-03-21T16:50:30.595Z,16.90
2019-03-21T16:52:59.146Z,20.60
2019-03-21T16:55:27.638Z,17.73
2019-03-21T16:57:56.250Z,20.73
2019-03-21T17:00:24.759Z,16.60
2019-03-21T17:02:53.169Z,15.33
2019-03-21T17:05:22.626Z,17.30
2019-03-21T17:07:51.192Z,23.00
2019-03-21T17:10:21.462Z,21.37
2019-03-21T17:12:50.019Z,23.27
2019-03-21T17:15:18.479Z,24.37
2019-03-21T17:17:46.899Z,41.00
2019-03-21T17:20:15.574Z,48.63
2019-03-21T17:22:43.966Z,55.23
2019-03-21T17:25:13.429Z,30.20
2019-03-21T17:27:41.924Z,16.50
2019-03-21T17:30:15.162Z,18.63
2019-03-21T17:32:43.588Z,23.97
2019-03-21T17:35:12.752Z,18.70
2019-03-21T17:37:41.175Z,18.87
2019-03-21T17:40:12.594Z,16.87
2019-03-21T17:42:41.075Z,14.40
2019-03-21T17:45:12.516Z,12.10
2019-03-21T17:47:40.955Z,13.63
2019-03-21T17:50:12.205Z,13.30
2019-03-21T17:52:40.639Z,20.23
2019-03-21T17:55:10.296Z,14.60
2019-03-21T17:57:38.728Z,20.70
2019-03-21T18:00:20.685Z,19.30
2019-03-21T18:02:49.184Z,14.90
2019-03-21T18:05:17.604Z,17.13
2019-03-21T18:07:46.097Z,13.30
2019-03-21T18:10:17.561Z,16.87
2019-03-21T18:12:45.980Z,16.23
2019-03-21T18:15:14.698Z,16.17
2019-03-21T18:17:43.118Z,17.70
2019-03-21T18:20:11.541Z,12.53
2019-03-21T18:22:40.216Z,16.47
2019-03-21T18:25:08.794Z,17.47
2019-03-21T18:27:37.210Z,14.27
2019-03-21T18:30:07.641Z,13.50
2019-03-21T18:32:36.123Z,18.67
2019-03-21T18:35:06.306Z,18.03
2019-03-21T18:37:34.913Z,19.40
2019-03-21T18:40:03.583Z,21.77
2019-03-21T18:42:31.980Z,19.33
2019-03-21T18:45:00.427Z,20.67
2019-03-21T18:47:29.119Z,21.50
2019-03-21T18:49:57.555Z,21.43
2019-03-21T18:52:26.058Z,21.87
2019-03-21T18:55:05.702Z,18.00
2019-03-21T18:57:25.132Z,18.77
2019-03-21T18:59:53.964Z,21.60
2019-03-21T19:02:22.398Z,22.50
2019-03-21T19:04:50.914Z,16.40
2019-03-21T19:07:19.425Z,22.70
2019-03-21T19:09:47.932Z,24.87
2019-03-21T19:12:16.345Z,24.37
2019-03-21T19:14:44.761Z,23.60
2019-03-21T19:17:13.206Z,22.90
2019-03-21T19:19:41.647Z,20.93
2019-03-21T19:22:10.187Z,25.90
2019-03-21T19:24:38.622Z,24.10
2019-03-21T19:27:07.139Z,22.27
2019-03-21T19:29:35.691Z,23.73
2019-03-21T19:32:04.214Z,16.97
2019-03-21T19:34:32.639Z,22.13
2019-03-21T19:37:01.105Z,20.97
2019-03-21T19:39:29.543Z,23.43
2019-03-21T19:41:58.044Z,22.17
2019-03-21T19:44:26.477Z,26.90
2019-03-21T19:46:54.889Z,18.90
2019-03-21T19:49:23.351Z,20.97
2019-03-21T19:51:51.746Z,19.03
2019-03-21T19:54:20.196Z,22.20
2019-03-21T19:56:48.704Z,22.17
2019-03-21T19:59:17.112Z,18.07
2019-03-21T20:01:45.544Z,18.20
2019-03-21T20:04:13.955Z,19.37
2019-03-21T20:06:42.388Z,17.87
2019-03-21T20:09:10.807Z,20.13
2019-03-21T20:11:39.301Z,17.37
2019-03-21T20:14:07.953Z,22.80
2019-03-21T20:16:36.398Z,22.93
2019-03-21T20:19:04.930Z,18.00
2019-03-21T20:21:33.345Z,19.40
2019-03-21T20:24:01.782Z,20.30
2019-03-21T20:26:30.212Z,17.27
2019-03-21T20:28:58.714Z,18.83
2019-03-21T20:31:27.140Z,19.70
2019-03-21T20:33:55.565Z,17.53
2019-03-21T20:36:24.002Z,27.83
2019-03-21T20:38:52.404Z,21.33
2019-03-21T20:41:20.931Z,26.20
2019-03-21T20:43:49.399Z,20.33
2019-03-21T20:46:17.947Z,18.57
2019-03-21T20:48:45.234Z,47.33
2019-03-21T20:51:13.716Z,21.27
2019-03-21T20:53:42.125Z,18.00
2019-03-21T20:56:10.559Z,21.23
2019-03-21T20:58:39.016Z,15.87
2019-03-21T21:01:07.503Z,16.67
2019-03-21T21:03:35.902Z,16.33
2019-03-21T21:06:04.401Z,21.00
2019-03-21T21:08:32.807Z,21.70
2019-03-21T21:11:03.359Z,17.97
2019-03-21T21:13:31.867Z,16.40
2019-03-21T21:16:00.302Z,17.53
2019-03-21T21:18:28.756Z,17.70
2019-03-21T21:20:57.154Z,23.33
2019-03-21T21:23:25.592Z,31.90
2019-03-21T21:26:04.768Z,19.73
2019-03-21T21:28:24.361Z,19.00
2019-03-21T21:30:52.782Z,24.17
2019-03-21T21:33:21.203Z,18.37
2019-03-21T21:35:49.648Z,23.57
2019-03-21T21:38:18.077Z,22.73
2019-03-21T21:40:46.510Z,25.80
2019-03-21T21:43:14.948Z,22.20
2019-03-21T21:45:43.469Z,19.67
2019-03-21T21:48:11.829Z,23.87
2019-03-21T21:50:40.330Z,24.97
2019-03-21T21:53:08.825Z,25.37
2019-03-21T21:55:37.249Z,29.10
2019-03-21T21:58:05.668Z,26.83
2019-03-21T22:00:34.087Z,26.50
2019-03-21T22:03:02.595Z,28.07
2019-03-21T22:05:31.003Z,29.57
2019-03-21T22:07:59.499Z,28.47
2019-03-21T22:10:29.531Z,26.10
2019-03-21T22:12:58.215Z,27.10
2019-03-21T22:15:26.655Z,24.13
2019-03-21T22:17:55.118Z,23.17
2019-03-21T22:20:23.522Z,26.77
2019-03-21T22:22:51.947Z,25.23
2019-03-21T22:25:20.441Z,26.93
2019-03-21T22:27:48.872Z,27.57
2019-03-21T22:30:19.577Z,25.73
2019-03-21T22:32:48.071Z,24.40
2019-03-21T22:35:16.571Z,24.57
2019-03-21T22:37:44.994Z,27.37
2019-03-21T22:40:15.665Z,30.13
2019-03-21T22:42:44.081Z,26.50
2019-03-21T22:45:17.581Z,30.00
2019-03-21T22:47:45.958Z,24.80
2019-03-21T22:50:16.659Z,29.00
2019-03-21T22:52:45.728Z,29.77
2019-03-21T22:55:14.707Z,40.20
2019-03-21T22:57:43.159Z,29.73
2019-03-21T23:00:22.396Z,31.77
2019-03-21T23:02:50.930Z,33.97
2019-03-21T23:05:20.580Z,35.23
2019-03-21T23:07:49.072Z,30.60
2019-03-21T23:10:20.605Z,29.80
2019-03-21T23:12:49.110Z,31.17
2019-03-21T23:15:17.595Z,31.87
2019-03-21T23:17:46.063Z,27.80
2019-03-21T23:20:15.535Z,27.30
2019-03-21T23:22:44.163Z,32.87
2019-03-21T23:25:16.314Z,31.20
2019-03-21T23:27:43.817Z,25.33
2019-03-21T23:30:17.152Z,33.33
2019-03-21T23:32:45.702Z,26.97
2019-03-21T23:35:15.050Z,31.93
2019-03-21T23:37:43.512Z,36.10
2019-03-21T23:40:15.898Z,34.07
2019-03-21T23:42:44.483Z,32.67
2019-03-21T23:45:14.566Z,30.80
2019-03-21T23:47:43.133Z,42.83
2019-03-21T23:50:15.024Z,33.10
2019-03-21T23:52:43.667Z,37.27
2019-03-21T23:55:13.236Z,45.70
2019-03-21T23:57:41.739Z,37.87
